Home > Products > Valid Products > TAF

000
FTUS44 KEWX 220700 AAA
TAFAUS
TAF AMD
KAUS 220712Z 2207/2312 18015KT P6SM BKN021
     FM220830 18010KT P6SM BKN015
     FM221500 18010KT P6SM SCT040
     FM221800 17010G20KT P6SM FEW080
     FM230000 15015KT P6SM SKC
     FM230900 18007KT P6SM BKN015=



000
FTUS44 KEWX 220700 AAB
TAFSAT
TAF AMD
KSAT 220711Z 2207/2312 17010KT P6SM BKN016
     FM221600 18010KT P6SM SCT040
     FM221800 17010G20KT P6SM FEW080
     FM230000 15015G25KT P6SM SKC
     FM230600 17010KT P6SM SCT015
     FM231000 18007KT P6SM BKN015=



000
FTUS44 KEWX 220600 AAA
TAFSAT
TAF AMD
KSAT 220611Z 2206/2312 15011KT P6SM BKN020
     FM220700 18007KT P6SM BKN015
     FM221600 18010KT P6SM SCT040
     FM221800 17010G20KT P6SM FEW080
     FM230000 15015G25KT P6SM SKC
     FM230600 17010KT P6SM SCT015
     FM231000 18007KT P6SM BKN015=



000
FTUS44 KEWX 220500
TAFSAT
TAF
KSAT 220522Z 2206/2312 14010KT P6SM SKC
     FM220800 18007KT P6SM BKN015
     FM221600 18010KT P6SM SCT040
     FM221800 17010G20KT P6SM FEW080
     FM230000 15015G25KT P6SM SKC
     FM230600 17010KT P6SM SCT015
     FM231000 18007KT P6SM BKN015=



000
FTUS44 KEWX 220500
TAFDRT
TAF
KDRT 220522Z 2206/2306 13008KT P6SM SKC
     FM221100 12010G20KT P6SM SCT020
     FM221600 14012G22KT P6SM FEW040
     FM230100 13010KT P6SM FEW040=



000
FTUS44 KEWX 220500
TAFAUS
TAF
KAUS 220522Z 2206/2312 17013KT P6SM BKN020
     FM220700 18007KT P6SM BKN015
     FM221500 18010KT P6SM SCT040
     FM221800 17010G20KT P6SM FEW080
     FM230000 15015KT P6SM SKC
     FM230900 18007KT P6SM BKN015=



000
FTUS44 KEWX 212300
TAFSAT
TAF
KSAT 212323Z 2200/2306 16015G25KT P6SM FEW090 FEW250
     FM220500 17012KT P6SM SCT010
     FM220800 18010KT P6SM BKN010
     FM221500 18010KT P6SM SCT040
     FM221800 16012G22KT P6SM FEW080=



000
FTUS44 KEWX 212300
TAFDRT
TAF
KDRT 212323Z 2200/2224 13008KT P6SM VCSH FEW080 SCT150
     FM220200 12009KT P6SM FEW250
     FM221100 12010KT P6SM BKN020
     FM221600 13014G24KT P6SM SCT040=



000
FTUS44 KEWX 212300
TAFAUS
TAF
KAUS 212323Z 2200/2306 17015G25KT P6SM FEW090 FEW250
     FM220500 17010KT P6SM SCT010
     FM220800 18009KT P6SM BKN010
     FM221500 18010KT P6SM SCT040
     FM221800 17012G22KT P6SM FEW080=



000
FTUS44 KEWX 211700
TAFDRT
TAF
KDRT 211729Z 2118/2218 14013G22KT P6SM SCT040
     FM220300 12012KT P6SM SCT250
     FM221100 12010KT P6SM BKN025
     FM221600 13015KT P6SM SCT040=



000
FTUS44 KEWX 211700
TAFSAT
TAF
KSAT 211729Z 2118/2224 16015G25KT P6SM FEW045
     FM220600 17013KT P6SM SCT025
     FM220800 17010KT P6SM BKN012
     FM221600 18012KT P6SM SCT040
     FM221800 17014G22KT P6SM SCT250=



000
FTUS44 KEWX 211700
TAFAUS
TAF
KAUS 211729Z 2118/2224 17012G22KT P6SM FEW050
     FM220500 17011KT P6SM SCT030
     FM220800 17009KT P6SM BKN015
     FM221600 18010KT P6SM SCT040
     FM221800 17013G20KT P6SM SCT250=



000
FTUS44 KEWX 211500 AAA
TAFDRT
TAF AMD
KDRT 211527Z 2115/2212 11012KT P6SM BKN025
     FM211700 14013G23KT P6SM SCT040
     FM220200 12014KT P6SM SCT250
     FM221100 10010KT P6SM BKN025=



000
FTUS44 KEWX 211200 AAA
TAFSAT
TAF AMD
KSAT 211251Z 2113/2218 17014KT P6SM SCT020 SCT080
     FM211600 17010G20KT P6SM SCT040
     FM212200 15016G26KT P6SM SCT060
     FM220800 17010KT P6SM BKN012
     FM221600 17012KT P6SM SCT050=



000
FTUS44 KEWX 211200 AAA
TAFAUS
TAF AMD
KAUS 211240Z 2113/2218 17008KT P6SM SCT025
     FM211500 18010G20KT P6SM SCT040
     FM212100 16013G23KT P6SM SCT060
     FM220800 17009KT P6SM BKN015
     FM221600 18010KT P6SM SCT050=



000
FTUS44 KEWX 211100
TAFDRT
TAF
KDRT 211125Z 2112/2212 11012KT P6SM OVC040
      TEMPO 2113/2115 BKN020
     FM211500 14013G23KT P6SM FEW060
     FM220200 12014KT P6SM SCT250
     FM221100 10010KT P6SM BKN025=



000
FTUS44 KEWX 211100
TAFAUS
TAF
KAUS 211125Z 2112/2218 17008KT P6SM SCT025
      TEMPO 2112/2115 BKN015
     FM211500 18010G20KT P6SM SCT040
     FM212100 16013G23KT P6SM SCT060
     FM220800 17009KT P6SM BKN015
     FM221600 18010KT P6SM SCT050=



000
FTUS44 KEWX 211100
TAFSAT
TAF
KSAT 211125Z 2112/2218 17014KT P6SM BKN015 BKN080
     FM211600 17010G20KT P6SM SCT040
     FM212200 15016G26KT P6SM SCT060
     FM220800 17010KT P6SM BKN012
     FM221600 17012KT P6SM SCT050=



000
FTUS44 KEWX 211000 AAB
TAFAUS
TAF AMD
KAUS 211003Z 2110/2212 17006KT P6SM SCT015
     FM211200 17008KT P6SM BKN015
     FM211500 18012G20KT P6SM SCT040
     FM211900 16015G23KT P6SM SCT060
     FM220900 17009KT P6SM BKN013=



000
FTUS44 KEWX 211000 AAB
TAFSAT
TAF AMD
KSAT 211003Z 2110/2212 16014KT P6SM BKN020
     FM211600 17014KT P6SM SCT040
     FM212200 15016G26KT P6SM SCT060
     FM220800 17010KT P6SM BKN012=



000
FTUS44 KEWX 210600 AAA
TAFAUS
TAF AMD
KAUS 210627Z 2106/2212 17008KT P6SM BKN015
     FM211500 18012G20KT P6SM SCT040
     FM211900 16015G23KT P6SM SCT060
     FM220900 17009KT P6SM BKN013=



000
FTUS44 KEWX 210600 AAA
TAFSAT
TAF AMD
KSAT 210625Z 2106/2212 16014KT P6SM BKN020 BKN250
     FM210800 16010KT P6SM BKN015
     FM211600 17014KT P6SM SCT040
     FM212200 15016G26KT P6SM SCT060
     FM220800 17010KT P6SM BKN012=



000
FTUS44 KEWX 210600 AAA
TAFDRT
TAF AMD
KDRT 210625Z 2106/2206 13012KT P6SM FEW045
      TEMPO 2113/2115 BKN020
     FM211500 14015G23KT P6SM FEW060
     FM220200 10010KT P6SM SCT250=



000
FTUS44 KEWX 210500
TAFSAT
TAF
KSAT 210524Z 2106/2212 14014G24KT P6SM FEW030 FEW250
     FM210700 16010KT P6SM BKN015
     FM211600 17014KT P6SM SCT040
     FM212200 15016G26KT P6SM SCT060
     FM220800 17010KT P6SM BKN012=



000
FTUS44 KEWX 210500
TAFAUS
TAF
KAUS 210524Z 2106/2212 16012KT P6SM FEW030 FEW250
     FM210800 17008KT P6SM BKN015
     FM211500 18012G20KT P6SM SCT040
     FM211900 16015G23KT P6SM SCT060
     FM220900 17009KT P6SM BKN013=



000
FTUS44 KEWX 210500
TAFDRT
TAF
KDRT 210524Z 2106/2206 11010KT P6SM SCT250
      TEMPO 2113/2115 BKN020
     FM211500 14015G23KT P6SM FEW060
     FM220200 10010KT P6SM SCT250=



000
FTUS44 KEWX 210400 AAA
TAFSAT
TAF AMD
KSAT 210414Z 2104/2206 14016G26KT P6SM FEW250
     FM210800 16010KT P6SM BKN015
     FM211600 17014KT P6SM SCT040
     FM212200 15015G22KT P6SM SCT060
     FM220100 14016KT P6SM SCT070=



000
FTUS44 KEWX 210400 AAA
TAFSAT
TAF AMD
KSAT 210414Z 2104/2206 14016G26KT P6SM FEW250
     FM210800 16010KT P6SM BKN015
     FM211600 17014KT P6SM SCT040
     FM212200 15015G22KT P6SM SCT060
     FM220100 14016KT P6SM SCT070=



000
FTUS44 KEWX 202300
TAFSAT
TAF
KSAT 202325Z 2100/2206 14016KT P6SM FEW080 FEW250
     FM210800 16010KT P6SM BKN015
     FM211600 17014KT P6SM SCT040
     FM212200 15015G22KT P6SM SCT060
     FM220100 14016KT P6SM SCT070=



000
FTUS44 KEWX 202300
TAFAUS
TAF
KAUS 202325Z 2100/2206 16015KT P6SM SCT070 SCT250
     FM210900 18008KT P6SM BKN015
     FM211500 18012G20KT P6SM SCT040
     FM211900 16015G22KT P6SM SCT060
     FM220100 15015KT P6SM SCT070=



000
FTUS44 KEWX 202300
TAFDRT
TAF
KDRT 202325Z 2100/2124 14013G23KT P6SM FEW080 SCT250
     FM210200 10010KT P6SM SCT250
      TEMPO 2113/2115 BKN020
     FM211500 14015G23KT P6SM FEW060=



000
FTUS44 KEWX 201700
TAFAUS
TAF
KAUS 201737Z 2018/2124 17018G22KT P6SM SCT040 BKN250
     FM210100 15013KT P6SM SCT070
     FM210900 17008KT P6SM BKN015
     FM211600 18012G20KT P6SM SCT040
     FM212000 17015G22KT P6SM SCT050=



000
FTUS44 KEWX 201700
TAFDRT
TAF
KDRT 201737Z 2018/2118 14015G20KT P6SM FEW030 SCT250
     FM210400 13008KT P6SM SCT250
     FM211500 13015KT P6SM BKN025=



000
FTUS44 KEWX 201700
TAFSAT
TAF
KSAT 201737Z 2018/2124 15015G20KT P6SM SCT040 SCT250
     FM210100 14016KT P6SM SCT070
     FM210800 16010KT P6SM BKN015
     FM211600 17014KT P6SM SCT040=



000
FTUS44 KEWX 201500 AAB
TAFSAT
TAF AMD
KSAT 201507Z 2015/2118 17010G20KT P6SM SCT025 BKN040
     FM210100 14016KT P6SM SCT070
     FM210800 16010KT P6SM BKN015
     FM211600 17014KT P6SM SCT040=



000
FTUS44 KEWX 201400 AAA
TAFAUS
TAF AMD
KAUS 201458Z 2015/2118 20012G18KT P6SM SCT019 BKN200
     FM201600 17018G22KT P6SM SCT040
     FM210100 15013KT P6SM SCT070
     FM210900 17008KT P6SM BKN015
     FM211600 18014KT P6SM SCT040=



000
FTUS44 KEWX 201400 AAA
TAFDRT
TAF AMD
KDRT 201404Z 2014/2112 11010KT P6SM OVC026
     FM201500 14013G23KT P6SM FEW060
     FM210400 10012KT P6SM SCT250=



000
FTUS44 KEWX 201400 AAA
TAFSAT
TAF AMD
KSAT 201402Z 2014/2118 16011KT P6SM BKN250
      TEMPO 2014/2016 BKN016
     FM201700 17010G20KT P6SM SCT040
     FM210100 14016KT P6SM SCT070
     FM210800 16010KT P6SM BKN015
     FM211600 17014KT P6SM SCT040=



000
FTUS44 KEWX 201200 AAA
TAFSAT
TAF AMD
KSAT 201243Z 2013/2118 16011KT P6SM BKN250
      TEMPO 2013/2015 BKN020
     FM201700 17010G20KT P6SM SCT040
     FM210100 14016KT P6SM SCT070
     FM210800 16010KT P6SM BKN015
     FM211600 17014KT P6SM SCT040=



000
FTUS44 KEWX 201200 AAA
TAFDRT
TAF AMD
KDRT 201226Z 2012/2112 11008KT P6SM SCT250
     FM201500 14013G23KT P6SM FEW060
     FM210400 10012KT P6SM SCT250=



000
FTUS44 KEWX 201200 AAA
TAFAUS
TAF AMD
KAUS 201226Z 2012/2118 18008KT P6SM BKN150
      TEMPO 2012/2015 BKN019
     FM201600 17010G20KT P6SM SCT040
     FM210100 15013KT P6SM SCT070
     FM210900 17008KT P6SM BKN015
     FM211600 18014KT P6SM SCT040=



000
FTUS44 KEWX 201100
TAFAUS
TAF
KAUS 201123Z 2012/2118 18008KT P6SM BKN012
     FM201500 17012KT P6SM BKN020
     FM201600 17010G20KT P6SM SCT040
     FM210100 15013KT P6SM SCT070
     FM210900 17008KT P6SM BKN015
     FM211600 18014KT P6SM SCT040=



000
FTUS44 KEWX 201100
TAFSAT
TAF
KSAT 201123Z 2012/2118 16011KT P6SM BKN012
     FM201500 17012KT P6SM BKN020
     FM201700 17010G20KT P6SM SCT040
     FM210100 14016KT P6SM SCT070
     FM210800 16010KT P6SM BKN015
     FM211600 17014KT P6SM SCT040=



000
FTUS44 KEWX 201100
TAFDRT
TAF
KDRT 201123Z 2012/2112 11008KT P6SM SCT250
      TEMPO 2013/2015 BKN020
     FM201500 14013G23KT P6SM FEW060
     FM210400 10012KT P6SM SCT250=



000
FTUS44 KEWX 200500
TAFSAT
TAF
KSAT 200521Z 2006/2112 14016KT P6SM FEW070 BKN150 OVC250
     FM200800 16008KT P6SM BKN012
     FM201500 17012KT P6SM BKN020
     FM201700 17012G22KT P6SM SCT040
     FM202300 14016KT P6SM SCT070
     FM210800 16010KT P6SM BKN012=



000
FTUS44 KEWX 200500
TAFDRT
TAF
KDRT 200521Z 2006/2106 09008KT P6SM SCT250
      TEMPO 2013/2015 BKN012
     FM201500 14013G23KT P6SM FEW060
     FM210200 10010KT P6SM SCT250=



000
FTUS44 KEWX 200500
TAFAUS
TAF
KAUS 200521Z 2006/2112 16015KT P6SM BKN150 OVC250
     FM200900 17008KT P6SM BKN012
     FM201500 17012KT P6SM BKN020
     FM201600 17012G22KT P6SM SCT040
     FM210100 16015KT P6SM SCT070
     FM210900 17008KT P6SM BKN012=



000
FTUS44 KEWX 200100 AAA
TAFDRT
TAF AMD
KDRT 200117Z 2001/2024 09008KT P6SM FEW100
      TEMPO 2012/2015 BKN012
     FM201500 14013G23KT P6SM FEW060=



000
FTUS44 KEWX 192300
TAFDRT
TAF
KDRT 192328Z 2000/2024 14012KT P6SM FEW100
     FM200300 11010KT P6SM SCT250
      TEMPO 2012/2015 BKN012
     FM201500 14013G23KT P6SM FEW060=



000
FTUS44 KEWX 192300
TAFAUS
TAF
KAUS 192328Z 2000/2106 16012KT P6SM FEW070 BKN200
     FM200900 17007KT P6SM BKN012
     FM201500 17012KT P6SM BKN020
     FM201600 17012G22KT P6SM SCT040
     FM210100 16012KT P6SM SCT070=



000
FTUS44 KEWX 192300
TAFSAT
TAF
KSAT 192328Z 2000/2106 15014KT P6SM FEW080 SCT150 BKN250
     FM200800 16007KT P6SM BKN012
     FM201500 17012KT P6SM BKN020
     FM201700 17012G22KT P6SM SCT040
     FM202300 15014KT P6SM SCT070=



000
FTUS44 KEWX 192000 AAA
TAFSAT
TAF AMD
KSAT 192016Z 1920/2024 15012G22KT P6SM FEW060 SCT150 BKN250
     FM200800 16007KT P6SM BKN012
     FM201500 17012KT P6SM BKN020
     FM201800 16012G22KT P6SM SCT040=



000
FTUS44 KEWX 192000 AAA
TAFDRT
TAF AMD
KDRT 192016Z 1920/2018 15010G20KT P6SM FEW100
     FM200400 12010KT P6SM FEW012 SCT070
     FM201100 12010G20KT P6SM SCT012=



000
FTUS44 KEWX 192000 AAA
TAFAUS
TAF AMD
KAUS 192016Z 1920/2024 19010G20KT P6SM FEW060 SCT150 BKN200
     FM200900 17007KT P6SM BKN012
     FM201500 17012KT P6SM BKN020
     FM201800 17012G22KT P6SM SCT040=



000
FTUS44 KEWX 191700
TAFSAT
TAF
KSAT 191731Z 1918/2024 16008KT P6SM VCSH SCT030 BKN150 OVC250
     FM192100 15012KT P6SM SCT040 BKN150
     FM200800 16007KT P6SM BKN012
     FM201500 17012KT P6SM BKN020
     FM201800 16012G22KT P6SM SCT040=



000
FTUS44 KEWX 191700
TAFDRT
TAF
KDRT 191731Z 1918/2018 12010G20KT P6SM VCSH OVC090
     FM200400 12010KT P6SM FEW012 SCT070
     FM201100 12010G20KT P6SM SCT012=



000
FTUS44 KEWX 191700
TAFAUS
TAF
KAUS 191731Z 1918/2024 21010G20KT P6SM SCT040 SCT200 BKN250
     FM192100 16012KT P6SM SCT040 BKN150
     FM200900 17007KT P6SM BKN012
     FM201500 17012KT P6SM BKN020
     FM201800 17012G22KT P6SM SCT040=



000
FTUS44 KEWX 191500 AAB
TAFDRT
TAF AMD
KDRT 191535Z 1916/2012 11010KT P6SM VCSH BKN010 BKN120
     FM191800 13014KT P6SM SCT030 BKN200
     FM200000 12010G20KT P6SM SCT070
     FM201100 12010KT P6SM SCT015=



000
FTUS44 KEWX 191500 AAA
TAFAUS
TAF AMD
KAUS 191535Z 1916/2018 18012G23KT P6SM VCSH SCT025 BKN250
     FM192200 15012G22KT P6SM SCT040 BKN200
     FM200000 16011KT P6SM SCT250
     FM200900 17007KT P6SM BKN015
     FM201600 17014KT P6SM SCT030=



000
FTUS44 KEWX 191500 AAA
TAFSAT
TAF AMD
KSAT 191535Z 1916/2018 18010G20KT P6SM VCSH SCT030 SCT100 OVC200
     FM192100 15012G22KT P6SM SCT040 BKN200
     FM200000 14015G25KT P6SM SCT040
     FM200600 16010KT P6SM BKN015
     FM201600 16013KT P6SM SCT030=



000
FTUS44 KEWX 191300 AAA
TAFDRT
TAF AMD
KDRT 191300Z 1913/2012 10012KT P6SM VCSH FEW100 BKN250
     FM191600 14017KT P6SM SCT060 SCT250
     FM200200 12010KT P6SM SCT250=



000
FTUS44 KEWX 191100
TAFDRT
TAF
KDRT 191125Z 1912/2012 10012KT P6SM FEW100 BKN250
     FM191700 14018KT P6SM SCT060 SCT250
     FM200200 12010KT P6SM SCT250=



000
FTUS44 KEWX 191100
TAFSAT
TAF
KSAT 191125Z 1912/2018 12006KT P6SM VCSH FEW060 BKN250
     FM191500 17011KT P6SM FEW040 BKN250
     FM191800 16012G22KT P6SM FEW050 BKN250
     FM200100 15012KT P6SM SCT070
     FM200800 16010KT P6SM BKN015
     FM201600 16013KT P6SM SCT030=



000
FTUS44 KEWX 191100
TAFAUS
TAF
KAUS 191125Z 1912/2018 18008KT P6SM FEW030 BKN200
     FM191600 19017KT P6SM FEW040 BKN250
     FM200000 16011KT P6SM SCT250
     FM200900 17007KT P6SM BKN015
     FM201600 17014KT P6SM SCT030=



000
FTUS44 KEWX 191000 AAB
TAFSAT
TAF AMD
KSAT 191015Z 1910/2012 12006KT P6SM VCSH FEW060 BKN250
     FM191500 17013G23KT P6SM SCT040
     FM192300 15015KT P6SM SCT070
     FM200800 16010KT P6SM BKN015=



000
FTUS44 KEWX 190900 AAA
TAFSAT
TAF AMD
KSAT 190926Z 1909/2012 15011KT P6SM VCSH FEW060 BKN250
     FM191100 16008KT P6SM BKN017
     FM191500 17013G23KT P6SM SCT040
     FM192300 15015KT P6SM SCT070
     FM200800 16010KT P6SM BKN015=



    US Dept of Commerce
    National Oceanic and Atmospheric Administration
    National Weather Service
    1325 East West Highway
    Silver Spring, MD 20910
    Page Author: NWS Internet Services Team
Disclaimer
Information Quality
Credits
Glossary
Privacy Policy
Freedom of Information Act (FOIA)
About Us
Career Opportunities